Time;durP1;ratioP1;P1;durP2;ratioP2;P2;SDS_P1;SDS_P2;PMS_P1;PMS_P2;Temp;Humidity;BMP_temperature;BMP_pressure;BME280_temperature;BME280_humidity;BME280_pressure;Samples;Min_cycle;Max_cycle;Signal;HPM_P1;HPM_P2
2023/01/21 04:07:35;;;;;;;5.70;4.13;;;11.60;93.90;;;;;;4590897;19;20505;-32
2023/01/21 04:09:06;;;;;;;5.05;3.35;;;11.70;93.90;;;;;;4589143;19;20516;-32
2023/01/21 04:10:37;;;;;;;6.65;4.05;;;11.80;93.90;;;;;;4589485;19;20014;-32
2023/01/21 04:12:09;;;;;;;7.53;4.35;;;11.80;93.80;;;;;;4594462;19;20460;-32
2023/01/21 04:13:41;;;;;;;5.73;3.87;;;11.90;93.70;;;;;;4594517;19;19998;-32
2023/01/21 04:15:14;;;;;;;5.33;3.70;;;11.90;93.70;;;;;;4594155;19;20457;-32
2023/01/21 04:16:46;;;;;;;6.47;3.50;;;11.90;93.60;;;;;;4593293;19;20464;-31
2023/01/21 04:18:17;;;;;;;6.20;3.97;;;11.90;93.60;;;;;;4594742;19;20476;-31
2023/01/21 04:19:48;;;;;;;6.80;4.15;;;11.90;93.60;;;;;;4594160;19;20018;-32
2023/01/21 04:21:19;;;;;;;6.32;3.60;;;11.90;93.60;;;;;;4593314;19;20094;-32
2023/01/21 04:22:50;;;;;;;7.15;4.40;;;11.90;93.60;;;;;;4593802;19;20011;-32
2023/01/21 04:24:21;;;;;;;7.72;3.92;;;11.90;93.50;;;;;;4592596;19;20472;-32
2023/01/21 04:25:53;;;;;;;6.50;4.03;;;11.90;93.50;;;;;;4594061;19;20023;-32
2023/01/21 04:27:24;;;;;;;7.32;3.95;;;11.90;93.50;;;;;;4593820;19;20015;-31
2023/01/21 04:28:55;;;;;;;5.70;3.72;;;11.80;93.40;;;;;;4591841;19;20026;-32
2023/01/21 04:30:27;;;;;;;7.90;3.90;;;11.70;93.50;;;;;;4592219;19;20019;-32
2023/01/21 04:31:58;;;;;;;6.40;4.10;;;11.60;93.40;;;;;;4593089;19;20489;-32
2023/01/21 04:33:29;;;;;;;5.95;3.78;;;11.70;93.40;;;;;;4592373;19;20030;-32
2023/01/21 04:35:00;;;;;;;5.55;3.72;;;11.80;93.50;;;;;;4593022;19;20035;-32
2023/01/21 04:36:32;;;;;;;5.97;3.47;;;11.80;93.50;;;;;;4591403;19;20410;-32
2023/01/21 04:38:03;;;;;;;7.30;4.07;;;11.80;93.50;;;;;;4592893;19;20476;-32
2023/01/21 04:39:34;;;;;;;;;;;11.90;93.50;;;;;;4593429;19;20015;-32
2023/01/21 04:41:05;;;;;;;6.90;4.27;;;11.90;93.40;;;;;;4593907;19;19937;-37
2023/01/21 04:42:36;;;;;;;5.97;3.55;;;11.90;93.50;;;;;;4593184;19;20137;-33
2023/01/21 04:44:08;;;;;;;6.72;3.85;;;11.80;93.50;;;;;;4592678;19;20074;-32
2023/01/21 04:45:39;;;;;;;5.88;3.45;;;11.70;93.40;;;;;;4591103;19;20014;-32
2023/01/21 04:47:10;;;;;;;5.72;3.70;;;11.70;93.40;;;;;;4593321;19;20481;-34
2023/01/21 04:48:41;;;;;;;6.05;4.15;;;11.70;93.40;;;;;;4594230;19;20021;-33
2023/01/21 04:50:13;;;;;;;7.50;3.22;;;11.80;93.40;;;;;;4591809;19;20013;-37
2023/01/21 04:51:45;;;;;;;6.43;3.53;;;11.90;93.40;;;;;;4591757;19;20031;-31
2023/01/21 04:53:16;;;;;;;5.65;3.15;;;11.70;93.20;;;;;;4593774;19;20469;-30
2023/01/21 04:54:48;;;;;;;6.85;3.22;;;11.70;93.30;;;;;;4593197;19;20078;-32
2023/01/21 04:56:19;;;;;;;4.97;2.67;;;11.80;93.20;;;;;;4593214;19;20014;-32
2023/01/21 04:57:50;;;;;;;6.20;3.42;;;11.90;93.20;;;;;;4593387;19;20034;-30
2023/01/21 04:59:21;;;;;;;5.47;3.10;;;11.80;93.10;;;;;;4592877;19;20456;-34
2023/01/21 05:00:55;;;;;;;5.47;3.15;;;11.70;93.10;;;;;;4592235;19;20018;-31
2023/01/21 05:02:27;;;;;;;5.57;2.53;;;11.70;93.20;;;;;;4592363;19;20010;-33
2023/01/21 05:03:59;;;;;;;4.63;2.67;;;11.80;93.20;;;;;;4591734;19;20425;-33
2023/01/21 05:05:30;;;;;;;4.85;2.70;;;11.80;93.30;;;;;;4591973;19;20015;-31
2023/01/21 05:22:52;;;;;;;4.43;2.60;;;11.80;93.30;;;;;;4586237;19;20495;-35
2023/01/21 05:24:24;;;;;;;4.60;2.58;;;11.80;93.40;;;;;;4591800;19;20847;-33
2023/01/21 05:25:56;;;;;;;4.20;2.40;;;11.80;93.40;;;;;;4591738;19;20006;-35
2023/01/21 05:27:27;;;;;;;3.63;2.05;;;11.90;93.40;;;;;;4590716;19;20493;-31
2023/01/21 05:28:58;;;;;;;2.85;1.95;;;11.90;93.40;;;;;;4591772;19;20014;-32
2023/01/21 05:30:29;;;;;;;4.68;2.60;;;11.80;93.40;;;;;;4592627;19;20021;-32
2023/01/21 05:32:01;;;;;;;4.10;2.47;;;11.70;93.50;;;;;;4593584;19;20014;-32
2023/01/21 05:33:33;;;;;;;4.65;2.20;;;11.70;93.50;;;;;;4592853;19;20494;-33
2023/01/21 05:35:05;;;;;;;5.18;2.85;;;11.80;93.50;;;;;;4591458;19;20013;-32
2023/01/21 05:36:38;;;;;;;4.60;2.13;;;11.90;93.50;;;;;;4593481;19;20019;-32
2023/01/21 05:38:10;;;;;;;5.10;2.70;;;11.90;93.60;;;;;;4590504;19;20519;-32
2023/01/21 05:39:41;;;;;;;4.30;2.42;;;11.90;93.50;;;;;;4591464;19;20479;-32
2023/01/21 05:41:12;;;;;;;3.47;2.00;;;11.80;93.80;;;;;;4591975;19;20496;-32
2023/01/21 05:42:43;;;;;;;5.20;2.58;;;11.80;93.60;;;;;;4593338;19;20018;-32
2023/01/21 05:44:14;;;;;;;4.40;2.83;;;11.90;93.60;;;;;;4591161;19;20011;-32
2023/01/21 05:45:45;;;;;;;4.22;2.50;;;11.90;93.70;;;;;;4592159;19;20010;-32
2023/01/21 05:47:17;;;;;;;4.65;2.42;;;11.80;93.70;;;;;;4592312;19;20476;-33
2023/01/21 05:48:48;;;;;;;5.60;3.03;;;11.70;93.90;;;;;;4594028;19;20019;-34
2023/01/21 05:50:19;;;;;;;6.15;2.90;;;11.70;94.00;;;;;;4594130;19;20489;-31
2023/01/21 05:51:51;;;;;;;3.72;2.47;;;11.80;94.10;;;;;;4594813;19;20626;-32
2023/01/21 05:53:22;;;;;;;4.78;2.30;;;11.70;94.20;;;;;;4593975;19;20025;-32
2023/01/21 05:54:53;;;;;;;3.38;2.33;;;11.70;94.30;;;;;;4592673;19;20063;-32
2023/01/21 05:56:24;;;;;;;4.43;2.88;;;11.60;94.40;;;;;;4587350;19;20006;-32
2023/01/21 05:57:56;;;;;;;4.47;2.10;;;11.60;94.50;;;;;;4593262;19;20038;-33
2023/01/21 05:59:27;;;;;;;4.35;2.38;;;11.70;94.60;;;;;;4594856;19;20414;-32
2023/01/21 06:00:58;;;;;;;5.35;2.75;;;11.80;94.60;;;;;;4591992;19;20010;-32
2023/01/21 06:02:29;;;;;;;3.92;2.42;;;11.80;94.60;;;;;;4593620;19;20046;-31
2023/01/21 06:04:01;;;;;;;3.80;2.33;;;11.70;94.80;;;;;;4593643;19;20498;-32
2023/01/21 06:05:34;;;;;;;4.30;2.30;;;11.80;94.90;;;;;;4591791;19;20514;-32
2023/01/21 06:07:06;;;;;;;4.57;3.03;;;11.80;94.90;;;;;;4592852;19;20530;-32
2023/01/21 06:08:37;;;;;;;3.67;2.45;;;11.80;94.90;;;;;;4593600;19;20029;-32
2023/01/21 06:10:09;;;;;;;4.78;2.38;;;11.80;95.00;;;;;;4592948;19;20018;-32
2023/01/21 06:11:40;;;;;;;4.47;2.25;;;11.80;95.00;;;;;;4593006;19;20007;-31
2023/01/21 06:13:12;;;;;;;4.88;2.92;;;11.80;95.20;;;;;;4593538;19;20007;-31
2023/01/21 06:14:44;;;;;;;4.33;2.30;;;11.70;95.30;;;;;;4591532;19;20395;-32
2023/01/21 06:16:16;;;;;;;4.83;3.20;;;11.60;95.40;;;;;;4593395;19;20786;-32
2023/01/21 06:17:47;;;;;;;3.75;2.55;;;11.60;95.50;;;;;;4590842;19;21020;-32
2023/01/21 06:19:18;;;;;;;4.18;2.83;;;11.60;95.50;;;;;;4593824;19;20015;-31
2023/01/21 06:20:49;;;;;;;4.63;3.05;;;11.70;95.60;;;;;;4593136;19;20042;-31
2023/01/21 06:22:21;;;;;;;4.25;2.42;;;11.70;95.60;;;;;;4592547;19;20018;-30
2023/01/21 06:27:21;;;;;;;6.57;2.53;;;11.80;95.80;;;;;;4590988;19;20834;-32
2023/01/21 06:28:55;;;;;;;3.78;2.88;;;11.80;95.80;;;;;;4592678;19;20473;-32
2023/01/21 06:30:28;;;;;;;5.20;2.63;;;11.70;96.00;;;;;;4591537;19;20015;-32
2023/01/21 06:31:59;;;;;;;4.57;2.95;;;11.80;95.90;;;;;;4589016;19;20481;-33
2023/01/21 06:33:30;;;;;;;4.22;2.90;;;11.80;95.90;;;;;;4590222;19;20025;-32
2023/01/21 06:35:03;;;;;;;4.00;2.92;;;11.80;95.90;;;;;;4589353;19;20022;-36
2023/01/21 06:36:35;;;;;;;5.10;3.30;;;11.80;95.80;;;;;;4589019;19;20019;-32
2023/01/21 06:38:06;;;;;;;4.47;2.43;;;11.90;95.80;;;;;;4590351;19;20464;-30
2023/01/21 06:39:37;;;;;;;5.05;2.97;;;11.90;95.90;;;;;;4589919;19;20461;-30
2023/01/21 06:41:08;;;;;;;4.30;3.05;;;11.90;95.90;;;;;;4588652;19;20011;-31
2023/01/21 06:42:40;;;;;;;4.95;3.17;;;11.80;95.90;;;;;;4590079;19;20021;-33
2023/01/21 06:44:12;;;;;;;4.53;2.92;;;11.80;96.00;;;;;;4591238;19;20039;-32
2023/01/21 06:45:45;;;;;;;4.13;3.30;;;11.90;96.00;;;;;;4591760;19;20021;-33
2023/01/21 06:47:16;;;;;;;;;;;10.30;97.10;;;;;;4590159;19;20828;-32
2023/01/21 06:48:48;;;;;;;5.60;3.58;;;9.00;99.30;;;;;;4589640;19;19919;-33
2023/01/21 06:50:20;;;;;;;5.40;3.87;;;8.30;99.90;;;;;;4590924;19;20031;-34
2023/01/21 06:51:52;;;;;;;6.32;4.25;;;8.00;99.90;;;;;;4591064;19;21028;-31
2023/01/21 06:53:23;;;;;;;7.65;4.65;;;7.80;99.90;;;;;;4588681;19;20052;-31
2023/01/21 06:54:54;;;;;;;5.28;4.20;;;7.70;99.90;;;;;;4588082;19;20496;-32
2023/01/21 06:56:26;;;;;;;6.43;4.30;;;7.60;99.90;;;;;;4589574;19;20007;-32
2023/01/21 06:57:57;;;;;;;5.50;4.45;;;7.60;99.90;;;;;;4590480;19;20014;-32
2023/01/21 06:59:28;;;;;;;5.97;4.22;;;7.40;99.90;;;;;;4591189;19;20010;-33
2023/01/21 07:01:01;;;;;;;6.00;4.57;;;7.40;99.90;;;;;;4590822;19;20442;-33
2023/01/21 07:02:32;;;;;;;6.03;4.43;;;7.40;99.90;;;;;;4590245;19;20034;-33
2023/01/21 07:04:04;;;;;;;7.15;4.88;;;7.40;99.90;;;;;;4590820;19;20457;-33
2023/01/21 07:05:35;;;;;;;7.15;4.65;;;7.40;99.90;;;;;;4590552;19;20017;-33
2023/01/21 07:07:06;;;;;;;6.53;5.00;;;7.40;99.90;;;;;;4589934;19;20015;-33
2023/01/21 07:08:38;;;;;;;5.82;4.97;;;7.30;99.90;;;;;;4589752;19;20081;-33
2023/01/21 07:10:10;;;;;;;7.93;5.78;;;7.30;99.90;;;;;;4591239;19;20019;-34
2023/01/21 07:11:41;;;;;;;6.73;4.87;;;7.30;99.90;;;;;;4590568;19;20010;-32
2023/01/21 07:13:12;;;;;;;7.20;5.20;;;7.20;99.90;;;;;;4592242;19;20484;-36
2023/01/21 07:14:45;;;;;;;6.23;5.53;;;7.30;99.90;;;;;;4591012;19;20021;-32
2023/01/21 07:16:16;;;;;;;5.80;4.43;;;7.30;99.90;;;;;;4591061;19;20469;-33
2023/01/21 07:17:47;;;;;;;5.57;4.35;;;7.30;99.90;;;;;;4590638;19;20014;-32
2023/01/21 07:19:19;;;;;;;7.07;5.35;;;7.30;99.90;;;;;;4591193;19;20010;-31
2023/01/21 07:20:53;;;;;;;6.20;4.57;;;7.30;99.90;;;;;;4592342;19;20015;-31
2023/01/21 07:22:24;;;;;;;6.18;4.93;;;7.30;99.90;;;;;;4591057;19;20485;-32
2023/01/21 07:23:55;;;;;;;7.03;5.38;;;7.30;99.90;;;;;;4590905;19;20373;-32
2023/01/21 07:25:26;;;;;;;7.15;5.07;;;7.30;99.90;;;;;;4589256;19;20092;-32
2023/01/21 07:26:58;;;;;;;7.00;5.22;;;7.20;99.90;;;;;;4590876;19;20365;-33
2023/01/21 07:39:03;;;;;;;6.87;5.60;;;7.10;99.90;;;;;;4589807;19;20465;-34
2023/01/21 07:40:36;;;;;;;7.87;5.37;;;7.10;99.90;;;;;;4590074;19;20485;-33
2023/01/21 07:42:09;;;;;;;6.33;4.80;;;7.40;99.90;;;;;;4588772;19;20409;-34
2023/01/21 07:43:42;;;;;;;6.83;4.40;;;8.20;99.90;;;;;;4588944;19;20874;-34
2023/01/21 07:45:13;;;;;;;7.25;4.53;;;8.90;99.90;;;;;;4589204;19;20528;-34
2023/01/21 07:46:44;;;;;;;7.57;5.63;;;9.50;99.90;;;;;;4589873;19;20348;-33
2023/01/21 07:48:17;;;;;;;6.10;4.47;;;9.80;99.90;;;;;;4591038;19;20014;-33
2023/01/21 07:49:48;;;;;;;5.18;3.70;;;9.90;99.90;;;;;;4588794;19;20571;-34
2023/01/21 07:51:19;;;;;;;5.30;3.60;;;10.10;99.90;;;;;;4589620;19;20078;-33
2023/01/21 07:52:53;;;;;;;5.18;4.07;;;10.20;99.90;;;;;;4588584;19;20014;-34
2023/01/21 07:54:24;;;;;;;5.80;4.00;;;10.30;99.90;;;;;;4591677;19;20017;-31
2023/01/21 07:55:55;;;;;;;4.80;3.45;;;10.40;99.70;;;;;;4590376;19;21047;-31
2023/01/21 07:57:27;;;;;;;5.70;4.15;;;10.50;99.60;;;;;;4591129;19;20040;-33
2023/01/21 07:58:58;;;;;;;5.50;4.05;;;10.50;99.70;;;;;;4590075;19;20013;-33
2023/01/21 08:00:29;;;;;;;5.03;3.80;;;10.60;99.30;;;;;;4592676;19;20017;-31
2023/01/21 08:02:00;;;;;;;5.03;3.70;;;10.60;99.30;;;;;;4592106;19;20011;-31
2023/01/21 08:03:32;;;;;;;5.30;3.33;;;10.70;99.10;;;;;;4591331;19;20023;-32
2023/01/21 08:05:03;;;;;;;6.35;3.33;;;10.70;99.10;;;;;;4590892;19;20033;-32
2023/01/21 08:06:36;;;;;;;6.82;3.95;;;10.70;99.10;;;;;;4590072;19;20345;-33
2023/01/21 08:08:08;;;;;;;5.53;4.00;;;10.80;99.00;;;;;;4591076;19;20023;-30
2023/01/21 08:09:39;;;;;;;8.25;3.97;;;10.80;99.00;;;;;;4591517;19;20456;-32
2023/01/21 08:11:10;;;;;;;5.43;3.80;;;10.90;98.90;;;;;;4589976;19;20014;-30
2023/01/21 08:12:41;;;;;;;5.97;4.45;;;11.00;98.80;;;;;;4589277;19;20014;-33
2023/01/21 08:14:12;;;;;;;6.55;3.95;;;11.00;98.70;;;;;;4591771;19;20025;-31
2023/01/21 08:15:43;;;;;;;5.63;3.95;;;11.00;98.60;;;;;;4591814;19;20010;-30
2023/01/21 08:17:15;;;;;;;5.22;3.60;;;11.10;98.70;;;;;;4589778;19;20018;-31
2023/01/21 08:18:46;;;;;;;4.25;3.40;;;11.00;98.60;;;;;;4589403;19;20535;-31
2023/01/21 08:20:17;;;;;;;5.97;4.03;;;11.00;98.60;;;;;;4588591;19;20017;-31
2023/01/21 08:21:48;;;;;;;5.35;3.40;;;11.00;98.70;;;;;;4589607;19;20001;-30
2023/01/21 08:23:21;;;;;;;5.37;3.80;;;11.00;98.60;;;;;;4589257;19;20042;-31
2023/01/21 08:24:52;;;;;;;4.55;2.80;;;10.70;99.10;;;;;;4587402;19;20483;-31
2023/01/21 08:26:23;;;;;;;5.63;3.28;;;10.90;99.00;;;;;;4588531;19;20026;-31
2023/01/21 08:27:57;;;;;;;4.00;2.75;;;11.00;98.80;;;;;;4590160;19;20015;-31
2023/01/21 08:29:29;;;;;;;4.83;3.53;;;11.10;98.70;;;;;;4589882;19;20495;-31
2023/01/21 08:31:09;;;;;;;5.10;3.13;;;11.20;98.50;;;;;;4586009;19;20456;-31
2023/01/21 08:32:40;;;;;;;5.27;3.63;;;11.30;98.40;;;;;;4588553;19;20039;-31
2023/01/21 08:34:11;;;;;;;5.15;3.22;;;11.40;98.40;;;;;;4587391;19;20521;-32
2023/01/21 08:35:42;;;;;;;4.28;2.88;;;11.40;98.30;;;;;;4588521;19;20018;-32
2023/01/21 08:37:15;;;;;;;6.30;3.47;;;11.50;98.30;;;;;;4589436;19;20022;-32
2023/01/21 08:38:47;;;;;;;4.20;2.77;;;11.50;98.30;;;;;;4587833;19;20808;-31
2023/01/21 08:40:18;;;;;;;5.35;3.35;;;11.60;98.20;;;;;;4587920;19;20520;-32
2023/01/21 08:41:49;;;;;;;5.35;3.00;;;11.60;98.20;;;;;;4590214;19;20013;-32
2023/01/21 15:40:25;;;;;;;14.40;9.33;;;12.10;98.50;;;;;;4588089;19;20413;-32
2023/01/21 15:42:26;;;;;;;16.97;11.30;;;12.10;98.50;;;;;;4589353;19;20471;-31
2023/01/21 15:44:03;;;;;;;17.53;10.67;;;10.20;99.90;;;;;;4589001;19;20425;-32
2023/01/21 15:46:09;;;;;;;8.73;6.57;;;9.00;99.90;;;;;;4589567;19;20421;-32
2023/01/21 15:47:59;;;;;;;11.20;8.57;;;8.40;99.90;;;;;;4587061;19;20573;-32
2023/01/21 15:50:06;;;;;;;11.67;7.73;;;8.20;99.90;;;;;;4584365;19;20472;-31
2023/01/21 15:52:12;;;;;;;8.80;7.03;;;8.00;99.90;;;;;;4584592;19;20496;-31
2023/01/21 15:54:12;;;;;;;10.43;7.60;;;8.00;99.90;;;;;;4584464;19;20460;-30
2023/01/21 15:56:22;;;;;;;16.63;9.60;;;7.80;99.90;;;;;;4584575;19;20421;-32
2023/01/21 15:57:56;;;;;;;12.67;10.17;;;7.80;99.90;;;;;;4587330;19;20424;-32
2023/01/21 16:00:06;;;;;;;12.23;9.33;;;7.80;99.90;;;;;;4587650;19;20530;-31
2023/01/21 16:01:38;;;;;;;9.70;7.77;;;7.80;99.90;;;;;;4588350;19;20392;-34
2023/01/21 16:03:32;;;;;;;10.47;7.97;;;7.80;99.90;;;;;;4587189;19;20416;-30
2023/01/21 16:05:09;;;;;;;12.70;8.93;;;7.80;99.90;;;;;;4587663;19;20461;-32
2023/01/21 16:07:21;;;;;;;8.83;7.60;;;7.70;99.90;;;;;;4592241;19;21049;-31
2023/01/21 16:09:08;;;;;;;10.57;8.18;;;7.70;99.90;;;;;;4596301;19;20535;-32
2023/01/21 16:10:46;;;;;;;11.33;8.40;;;7.70;99.90;;;;;;4596465;19;20358;-32
2023/01/21 16:12:32;;;;;;;15.33;10.37;;;7.70;99.90;;;;;;4596650;19;20413;-32
2023/01/21 16:14:36;;;;;;;12.30;9.93;;;7.70;99.90;;;;;;4596587;19;20931;-32
2023/01/21 16:16:32;;;;;;;12.37;9.87;;;7.70;99.90;;;;;;4596411;19;20416;-31
2023/01/21 16:18:18;;;;;;;12.03;10.00;;;7.70;99.90;;;;;;4595994;19;20433;-32
2023/01/21 16:19:50;;;;;;;11.97;7.77;;;7.70;99.90;;;;;;4595831;19;21048;-31
2023/01/21 16:21:30;;;;;;;10.27;8.80;;;7.60;99.90;;;;;;4596516;19;20432;-32
2023/01/21 16:23:04;;;;;;;12.00;8.87;;;7.70;99.90;;;;;;4596141;19;20950;-32
2023/01/21 16:24:41;;;;;;;13.77;10.07;;;7.70;99.90;;;;;;4595669;19;20457;-31
2023/01/21 16:26:33;;;;;;;14.27;10.33;;;7.60;99.90;;;;;;4595400;19;20424;-32
2023/01/21 16:28:19;;;;;;;13.03;9.33;;;7.60;99.90;;;;;;4595742;19;21333;-33
2023/01/21 16:29:57;;;;;;;14.80;10.75;;;7.60;99.90;;;;;;4595870;19;20785;-31
2023/01/21 16:31:29;;;;;;;11.87;9.07;;;7.50;99.90;;;;;;4596506;19;20514;-32
2023/01/21 16:33:14;;;;;;;10.50;8.23;;;7.60;99.90;;;;;;4596042;19;21103;-32
2023/01/21 16:34:47;;;;;;;10.57;8.63;;;7.50;99.90;;;;;;4595876;19;21068;-31
2023/01/21 16:36:19;;;;;;;12.47;9.23;;;7.50;99.90;;;;;;4595998;19;20812;-32
2023/01/21 16:37:55;;;;;;;11.60;9.53;;;7.50;99.90;;;;;;4596449;19;20460;-31
2023/01/21 16:39:28;;;;;;;10.17;7.87;;;7.50;99.90;;;;;;4595845;19;20458;-31
2023/01/21 16:41:06;;;;;;;10.03;7.90;;;7.50;99.90;;;;;;4594815;19;20461;-32
2023/01/21 16:42:42;;;;;;;10.20;8.53;;;7.50;99.90;;;;;;4595990;19;20436;-31
2023/01/21 16:44:17;;;;;;;9.90;8.23;;;7.50;99.90;;;;;;4597706;19;20705;-32
2023/01/21 16:45:51;;;;;;;10.97;9.03;;;7.50;99.90;;;;;;4596186;19;20457;-32
2023/01/21 16:47:33;;;;;;;12.07;9.20;;;7.50;99.90;;;;;;4597532;19;20389;-31
2023/01/21 16:49:11;;;;;;;11.07;8.37;;;7.50;99.90;;;;;;4597945;19;20534;-32
2023/01/21 16:50:46;;;;;;;10.53;7.97;;;7.40;99.90;;;;;;4596699;19;20493;-31
2023/01/21 16:52:20;;;;;;;10.27;8.40;;;7.40;99.90;;;;;;4597017;19;20425;-31
2023/01/21 16:54:10;;;;;;;13.00;9.20;;;7.40;99.90;;;;;;4593387;19;20469;-31
2023/01/21 16:55:46;;;;;;;12.23;9.10;;;7.40;99.90;;;;;;4598934;19;20022;-32
2023/01/21 16:57:19;;;;;;;11.83;8.00;;;7.40;99.90;;;;;;4597735;19;20858;-32
2023/01/21 16:58:51;;;;;;;12.87;9.03;;;7.80;99.90;;;;;;4599159;19;20832;-31
2023/01/21 17:00:28;;;;;;;11.33;9.10;;;8.50;99.90;;;;;;4597431;19;20457;-32
2023/01/21 17:01:59;;;;;;;12.10;8.63;;;9.10;99.90;;;;;;4599872;19;20460;-31
2023/01/21 17:03:31;;;;;;;10.52;7.70;;;9.50;99.90;;;;;;4598988;19;20573;-32
2023/01/21 17:05:07;;;;;;;;;;;9.70;99.90;;;;;;4598168;19;20011;-32
2023/01/21 17:06:38;;;;;;;10.30;7.27;;;10.00;99.90;;;;;;4599933;19;19915;-31
2023/01/21 17:08:10;;;;;;;10.48;7.57;;;10.10;99.90;;;;;;4598641;19;20556;-31
2023/01/21 17:09:41;;;;;;;11.43;7.33;;;10.30;99.90;;;;;;4596731;19;20018;-32
2023/01/21 17:11:14;;;;;;;10.30;7.30;;;10.50;99.90;;;;;;4599291;19;20480;-32
2023/01/21 17:12:58;;;;;;;12.80;8.32;;;10.60;99.90;;;;;;4599260;19;20783;-31
2023/01/21 17:14:29;;;;;;;12.00;8.50;;;10.70;99.90;;;;;;4598796;19;20464;-31
2023/01/21 17:16:01;;;;;;;10.20;7.75;;;10.80;99.90;;;;;;4598671;19;20468;-32
2023/01/21 17:17:33;;;;;;;13.43;10.68;;;10.90;99.90;;;;;;4594771;19;20378;-32
2023/01/21 17:19:06;;;;;;;10.00;7.37;;;11.00;99.90;;;;;;4592745;19;20022;-33
2023/01/21 17:20:44;;;;;;;11.87;8.03;;;11.10;99.90;;;;;;4591404;19;20460;-35
2023/01/21 17:22:18;;;;;;;11.27;8.03;;;11.20;99.90;;;;;;4591177;19;20444;-33
2023/01/21 17:23:52;;;;;;;9.53;6.83;;;11.20;99.90;;;;;;4591717;19;20461;-35
2023/01/21 17:25:24;;;;;;;8.43;6.83;;;11.30;99.90;;;;;;4590051;19;21043;-34
2023/01/21 17:27:16;;;;;;;8.90;6.78;;;11.30;99.90;;;;;;4590050;19;20903;-33
2023/01/21 17:28:54;;;;;;;8.53;6.43;;;11.30;99.90;;;;;;4593529;19;20010;-34
2023/01/21 17:30:26;;;;;;;8.80;7.03;;;11.40;99.90;;;;;;4593659;19;21197;-32
2023/01/21 17:31:59;;;;;;;8.33;6.17;;;11.40;99.90;;;;;;4592921;19;20441;-34
2023/01/21 17:33:33;;;;;;;6.80;5.23;;;11.40;99.90;;;;;;4590873;19;20480;-33
2023/01/21 17:35:13;;;;;;;9.90;6.53;;;11.40;99.90;;;;;;4591611;19;20830;-32
2023/01/21 17:36:47;;;;;;;9.03;6.27;;;11.50;99.90;;;;;;4590850;19;20445;-32
2023/01/21 17:38:28;;;;;;;10.30;7.27;;;11.50;99.90;;;;;;4590771;19;20480;-36
2023/01/21 17:39:59;;;;;;;13.83;9.33;;;11.50;99.90;;;;;;4591106;19;20465;-34
2023/01/21 17:41:57;;;;;;;14.33;10.13;;;11.60;99.90;;;;;;4590879;19;21470;-32
2023/01/21 17:43:31;;;;;;;11.97;8.53;;;11.50;99.90;;;;;;4591735;19;20499;-34
2023/01/21 17:45:04;;;;;;;10.47;6.77;;;11.60;99.90;;;;;;4590149;19;20822;-32
2023/01/21 17:46:35;;;;;;;10.20;6.83;;;11.70;99.90;;;;;;4590145;19;20481;-33
2023/01/21 17:48:20;;;;;;;9.07;6.55;;;11.70;99.90;;;;;;4592289;19;20509;-31
2023/01/21 17:50:31;;;;;;;9.20;6.50;;;11.90;99.90;;;;;;4589784;19;20010;-35
2023/01/21 17:52:02;;;;;;;11.90;7.03;;;11.90;99.90;;;;;;4591020;19;20465;-31
2023/01/21 17:53:39;;;;;;;;;;;12.00;99.90;;;;;;4592900;19;20491;-31
2023/01/21 17:55:12;;;;;;;9.43;6.87;;;12.10;99.90;;;;;;4590936;19;19932;-31
2023/01/21 17:56:46;;;;;;;11.10;7.23;;;12.20;99.90;;;;;;4590692;19;21062;-32
2023/01/21 17:58:39;;;;;;;9.77;7.00;;;12.20;99.80;;;;;;4591071;19;20011;-31
2023/01/21 18:00:38;;;;;;;9.73;7.03;;;12.20;99.70;;;;;;4590547;19;20484;-34
2023/01/21 18:02:11;;;;;;;9.97;6.93;;;12.20;99.70;;;;;;4591227;19;20014;-33
2023/01/21 18:03:42;;;;;;;9.70;7.00;;;12.30;99.70;;;;;;4590641;19;20485;-32
2023/01/21 18:05:14;;;;;;;10.20;7.07;;;12.30;99.70;;;;;;4590546;19;20002;-32
2023/01/21 18:06:45;;;;;;;11.20;8.60;;;12.20;99.60;;;;;;4589834;19;20014;-32
2023/01/21 18:08:17;;;;;;;;;;;12.20;99.60;;;;;;4593729;19;20014;-35
2023/01/21 18:09:53;;;;;;;11.20;7.90;;;12.20;99.70;;;;;;4592566;19;20063;-31
2023/01/21 18:11:24;;;;;;;11.20;8.50;;;12.20;99.70;;;;;;4592512;19;21037;-33
2023/01/21 18:12:57;;;;;;;10.05;7.45;;;12.20;99.70;;;;;;4591167;19;20090;-32
2023/01/21 18:14:28;;;;;;;11.90;8.07;;;12.20;99.80;;;;;;4590332;19;20091;-32
2023/01/21 18:16:01;;;;;;;13.03;8.77;;;12.20;99.80;;;;;;4589100;19;20011;-35
2023/01/21 18:17:36;;;;;;;16.47;10.43;;;12.10;99.80;;;;;;4590512;19;21190;-32
2023/01/21 18:19:29;;;;;;;13.30;8.23;;;12.10;99.90;;;;;;4592332;19;20586;-32
2023/01/21 18:21:03;;;;;;;9.73;7.50;;;12.10;99.80;;;;;;4590657;19;20010;-32
2023/01/21 18:22:35;;;;;;;10.77;7.63;;;12.10;99.90;;;;;;4590274;19;20018;-32
2023/01/21 18:24:09;;;;;;;11.02;8.15;;;12.10;99.80;;;;;;4589669;19;20388;-34
2023/01/21 18:25:41;;;;;;;14.50;10.30;;;12.10;99.90;;;;;;4589927;19;20488;-32
2023/01/21 18:27:12;;;;;;;13.17;9.77;;;12.10;99.90;;;;;;4590558;19;20546;-34
2023/01/21 18:28:43;;;;;;;14.10;9.88;;;12.10;99.90;;;;;;4590379;19;20102;-34
2023/01/21 18:30:16;;;;;;;12.90;9.55;;;12.10;99.90;;;;;;4589123;19;20031;-32
2023/01/21 18:31:50;;;;;;;10.20;7.53;;;12.00;99.90;;;;;;4590691;19;20042;-34
2023/01/21 18:33:23;;;;;;;11.53;8.83;;;12.00;99.90;;;;;;4589515;19;20587;-34
2023/01/21 18:34:55;;;;;;;11.70;8.60;;;12.00;99.90;;;;;;4589542;19;20011;-31
2023/01/21 18:36:26;;;;;;;;;;;12.10;99.90;;;;;;4592801;19;20019;-32
2023/01/21 18:37:58;;;;;;;11.27;7.00;;;12.00;99.90;;;;;;4590661;19;19922;-32
2023/01/21 18:39:30;;;;;;;10.43;7.80;;;12.00;99.90;;;;;;4592160;19;20496;-32
2023/01/21 18:41:01;;;;;;;8.38;6.72;;;12.00;99.90;;;;;;4591555;19;20448;-32
2023/01/21 18:42:33;;;;;;;9.00;6.82;;;12.00;99.90;;;;;;4592381;19;20019;-32
2023/01/21 18:44:06;;;;;;;10.27;6.77;;;12.00;99.90;;;;;;4593056;19;20011;-32
2023/01/21 18:45:39;;;;;;;9.77;7.03;;;12.10;99.90;;;;;;4590415;19;21043;-32
2023/01/21 18:47:22;;;;;;;9.43;7.03;;;12.10;99.90;;;;;;4589360;19;21120;-32
2023/01/21 18:48:53;;;;;;;10.37;7.30;;;12.10;99.90;;;;;;4591018;19;19999;-32
2023/01/21 18:50:27;;;;;;;9.70;7.37;;;12.00;99.90;;;;;;4591653;19;21075;-32
2023/01/21 18:52:00;;;;;;;12.00;8.33;;;12.10;99.90;;;;;;4590441;19;20014;-32
2023/01/21 18:53:33;;;;;;;9.13;6.80;;;12.10;99.90;;;;;;4590653;19;20607;-32
2023/01/21 18:55:42;;;;;;;12.47;8.40;;;12.10;99.90;;;;;;4592653;19;20480;-32
2023/01/21 18:57:20;;;;;;;12.47;8.30;;;12.10;99.90;;;;;;4592975;19;20018;-32
2023/01/21 18:58:54;;;;;;;12.73;8.67;;;12.10;99.90;;;;;;4589882;19;20002;-32
2023/01/21 19:00:30;;;;;;;;;;;12.00;99.90;;;;;;4591622;19;20572;-32
2023/01/21 19:02:16;;;;;;;11.27;8.60;;;12.00;99.90;;;;;;4592085;19;19931;-32
2023/01/21 19:03:57;;;;;;;11.13;7.80;;;12.00;99.90;;;;;;4589967;19;20327;-32
2023/01/21 19:05:35;;;;;;;10.10;7.93;;;12.00;99.90;;;;;;4591007;19;20014;-32
2023/01/21 19:07:22;;;;;;;13.27;8.00;;;12.00;99.90;;;;;;4591272;19;20499;-32
2023/01/21 19:08:53;;;;;;;9.80;6.80;;;12.00;99.90;;;;;;4589576;19;20006;-32
2023/01/21 19:10:25;;;;;;;9.77;7.10;;;12.00;99.90;;;;;;4592405;19;20011;-32
2023/01/21 19:11:56;;;;;;;11.38;7.38;;;12.00;99.90;;;;;;4588919;19;20472;-32
2023/01/21 19:13:31;;;;;;;11.33;8.43;;;12.00;99.90;;;;;;4588076;19;20021;-32
2023/01/21 19:15:03;;;;;;;12.43;8.73;;;12.00;99.90;;;;;;4588440;19;20470;-33
2023/01/21 19:16:35;;;;;;;13.07;8.63;;;12.00;99.90;;;;;;4591095;19;20018;-35
2023/01/21 19:18:10;;;;;;;11.18;8.25;;;12.00;99.90;;;;;;4590702;19;21116;-34
2023/01/21 19:19:41;;;;;;;10.73;7.80;;;12.00;99.90;;;;;;4590199;19;20378;-35
2023/01/21 19:21:13;;;;;;;12.18;8.02;;;12.00;99.90;;;;;;4590051;19;20461;-34
2023/01/21 19:22:44;;;;;;;10.95;7.82;;;12.00;99.90;;;;;;4589094;19;20468;-32
2023/01/21 19:24:16;;;;;;;12.33;9.07;;;12.00;99.90;;;;;;4589622;19;20085;-32
2023/01/21 19:25:54;;;;;;;13.75;9.90;;;12.00;99.90;;;;;;4589479;19;20526;-35
2023/01/21 19:27:33;;;;;;;13.77;10.80;;;12.00;99.90;;;;;;4589665;19;20011;-34
2023/01/21 19:29:04;;;;;;;15.57;9.80;;;12.00;99.90;;;;;;4588690;19;20556;-33
2023/01/21 19:30:43;;;;;;;13.27;8.63;;;12.00;99.90;;;;;;4587922;19;20035;-35
2023/01/21 19:34:57;;;;;;;11.67;8.47;;;12.00;99.90;;;;;;4589176;19;20452;-34
2023/01/21 19:36:29;;;;;;;10.85;8.60;;;12.00;99.90;;;;;;4591445;19;20441;-32
2023/01/21 19:38:01;;;;;;;13.30;9.30;;;12.00;99.90;;;;;;4590602;19;20022;-32
2023/01/21 19:39:33;;;;;;;11.17;7.90;;;12.00;99.90;;;;;;4590260;19;20013;-32
2023/01/21 19:41:05;;;;;;;11.95;7.88;;;12.00;99.90;;;;;;4587614;19;21178;-32
2023/01/21 19:42:37;;;;;;;11.77;8.00;;;11.90;99.90;;;;;;4588917;19;20014;-32
2023/01/21 19:44:08;;;;;;;10.73;7.50;;;12.00;99.90;;;;;;4588359;19;20011;-32
2023/01/21 19:45:41;;;;;;;10.83;8.53;;;11.90;99.90;;;;;;4589051;19;20033;-32
2023/01/21 19:47:22;;;;;;;12.40;8.47;;;12.00;99.90;;;;;;4588745;19;20461;-32
2023/01/21 19:48:53;;;;;;;12.03;8.87;;;12.00;99.90;;;;;;4588083;19;21072;-32
2023/01/21 19:50:26;;;;;;;10.02;8.07;;;12.00;99.90;;;;;;4588738;19;20500;-32